Changling, China
Current Conditions -  °F | °C
As of 2:00 PM on Friday 24 Oct 2014 (Local Time) from ZYCC Reporting Station
Smoke Smoke  
Wind Chill: 68°   Ceiling: 2300
Heat Index: 68°   Visibility: 1.2mi
Dew Point: 48°   Wind: 25mph
Humidity: 49%   Direction: 220°SW
Pressure: 29.74"   Gusts: NA
Location:  44.27°N, 123.99°E
Report Text: ZYCC 240600Z 22011MPS 2000 FU OVC023 20/09 Q1007 NOSIG
Loading
Personal Weather Stations






























Interactive Weather Map
Tropical Storm Tracking
New forecast layout! Learn more

10-Day Weather Forecast

Advertisements
Track Severe Weather on mobile